AAL6091 KPHL-KMKE
Flight info
| Callsign | AAL6091 |
|---|---|
| Flight time | 1h 53m |
| Altitude | 38000 |
| Route | PTW SARAA RAV PSB J60 DJB CRL PEGEE GETCH LYSTR SUDDS |
| Aircraft | CRJ9/M-SDFGIRWY/S |
Departure
| Time | 2026-05-08 19:59 |
|---|---|
| Airport | Philadelphia International Airport (KPHL) |
Arrival
| Time | 2026-05-08 21:52 |
|---|---|
| Airport | General Mitchell International Airport (KMKE) |
| Time | Latitude | Longitude | Altitude | Speed | Heading |
|---|---|---|---|---|---|
| 2026-05-08 19:28 | 39.87969 | -75.23618 | 20 ft | 0 kts | 24° |
| 2026-05-08 19:43 | 39.87960 | -75.23623 | 20 ft | 3 kts | 24° |
| 2026-05-08 19:43 | 39.87945 | -75.23636 | 21 ft | 3 kts | 62° |
| 2026-05-08 19:44 | 39.87944 | -75.23657 | 21 ft | 1 kts | 104° |
| 2026-05-08 19:47 | 39.87943 | -75.23651 | 19 ft | 2 kts | 107° |
| 2026-05-08 19:47 | 39.87932 | -75.23623 | 19 ft | 5 kts | 118° |
| 2026-05-08 19:48 | 39.87912 | -75.23568 | 19 ft | 5 kts | 112° |
| 2026-05-08 19:48 | 39.87912 | -75.23567 | 19 ft | 0 kts | 112° |
| 2026-05-08 19:49 | 39.87911 | -75.23566 | 19 ft | 0 kts | 121° |
| 2026-05-08 19:49 | 39.87907 | -75.23563 | 19 ft | 2 kts | 156° |
| 2026-05-08 19:49 | 39.87880 | -75.23559 | 18 ft | 7 kts | 171° |
| 2026-05-08 19:49 | 39.87869 | -75.23551 | 18 ft | 0 kts | 134° |
| 2026-05-08 19:50 | 39.87866 | -75.23547 | 18 ft | 3 kts | 127° |
| 2026-05-08 19:51 | 39.87852 | -75.23523 | 19 ft | 4 kts | 127° |
| 2026-05-08 19:51 | 39.87813 | -75.23467 | 19 ft | 12 kts | 139° |
| 2026-05-08 19:51 | 39.87717 | -75.23403 | 18 ft | 18 kts | 157° |
| 2026-05-08 19:51 | 39.87608 | -75.23352 | 18 ft | 0 kts | 161° |
| 2026-05-08 19:52 | 39.87600 | -75.23348 | 18 ft | 3 kts | 161° |
| 2026-05-08 19:52 | 39.87567 | -75.23333 | 18 ft | 7 kts | 160° |
| 2026-05-08 19:52 | 39.87509 | -75.23306 | 18 ft | 11 kts | 160° |
| 2026-05-08 19:52 | 39.87449 | -75.23249 | 16 ft | 11 kts | 97° |
| 2026-05-08 19:53 | 39.87461 | -75.23180 | 15 ft | 0 kts | 73° |
| 2026-05-08 19:53 | 39.87463 | -75.23170 | 16 ft | 0 kts | 73° |
| 2026-05-08 19:53 | 39.87465 | -75.23162 | 17 ft | 0 kts | 82° |
| 2026-05-08 19:54 | 39.87465 | -75.23150 | 15 ft | 5 kts | 90° |
| 2026-05-08 19:55 | 39.87459 | -75.23124 | 17 ft | 0 kts | 123° |
| 2026-05-08 19:55 | 39.87458 | -75.23122 | 16 ft | 2 kts | 127° |
| 2026-05-08 19:55 | 39.87417 | -75.23090 | 14 ft | 11 kts | 158° |
| 2026-05-08 19:56 | 39.87327 | -75.23044 | 16 ft | 17 kts | 158° |
| 2026-05-08 19:56 | 39.87233 | -75.22995 | 15 ft | 1 kts | 158° |
| 2026-05-08 19:56 | 39.87208 | -75.22986 | 13 ft | 9 kts | 172° |
| 2026-05-08 19:56 | 39.87147 | -75.23058 | 12 ft | 18 kts | 252° |
| 2026-05-08 19:57 | 39.87087 | -75.23214 | 13 ft | 20 kts | 229° |
| 2026-05-08 19:57 | 39.87017 | -75.23396 | 14 ft | 26 kts | 257° |
| 2026-05-08 19:57 | 39.86970 | -75.23649 | 17 ft | 30 kts | 256° |
| 2026-05-08 19:57 | 39.86927 | -75.23860 | 18 ft | 1 kts | 255° |
| 2026-05-08 19:58 | 39.86927 | -75.23863 | 18 ft | 0 kts | 255° |
| 2026-05-08 19:58 | 39.86923 | -75.23879 | 17 ft | 4 kts | 255° |
| 2026-05-08 19:58 | 39.86900 | -75.23931 | 18 ft | 9 kts | 205° |
| 2026-05-08 19:58 | 39.86818 | -75.23950 | 16 ft | 15 kts | 214° |
| 2026-05-08 19:59 | 39.86750 | -75.24165 | 14 ft | 51 kts | 254° |
| 2026-05-08 19:59 | 39.86590 | -75.24934 | 21 ft | 122 kts | 255° |
| 2026-05-08 19:59 | 39.86336 | -75.26230 | 216 ft | 166 kts | 257° |
| 2026-05-08 19:59 | 39.86056 | -75.27758 | 936 ft | 180 kts | 257° |
| 2026-05-08 20:00 | 39.85838 | -75.29405 | 1775 ft | 189 kts | 262° |
| 2026-05-08 20:00 | 39.85499 | -75.31001 | 2947 ft | 167 kts | 249° |
| 2026-05-08 20:00 | 39.84977 | -75.32160 | 4254 ft | 147 kts | 240° |
| 2026-05-08 20:00 | 39.84475 | -75.33410 | 4666 ft | 164 kts | 250° |
| 2026-05-08 20:01 | 39.84089 | -75.34787 | 5431 ft | 156 kts | 256° |
| 2026-05-08 20:01 | 39.83861 | -75.36110 | 6306 ft | 146 kts | 264° |
| 2026-05-08 20:01 | 39.83782 | -75.37437 | 6812 ft | 155 kts | 270° |
| 2026-05-08 20:01 | 39.83834 | -75.38876 | 7267 ft | 166 kts | 279° |
| 2026-05-08 20:02 | 39.84477 | -75.40325 | 7102 ft | 214 kts | 313° |
| 2026-05-08 20:02 | 39.85647 | -75.41814 | 7123 ft | 255 kts | 311° |
| 2026-05-08 20:02 | 39.86962 | -75.43574 | 7499 ft | 277 kts | 310° |
| 2026-05-08 20:02 | 39.88391 | -75.45397 | 7927 ft | 305 kts | 314° |
| 2026-05-08 20:03 | 39.90008 | -75.47197 | 9023 ft | 301 kts | 322° |
| 2026-05-08 20:03 | 39.91831 | -75.48524 | 10088 ft | 302 kts | 329° |
| 2026-05-08 20:03 | 39.93644 | -75.49812 | 10909 ft | 301 kts | 325° |
| 2026-05-08 20:03 | 39.95437 | -75.51216 | 11732 ft | 302 kts | 324° |
| 2026-05-08 20:04 | 39.97303 | -75.52680 | 12124 ft | 313 kts | 325° |
| 2026-05-08 20:04 | 39.99139 | -75.54089 | 13414 ft | 299 kts | 325° |
| 2026-05-08 20:04 | 40.00902 | -75.55430 | 14583 ft | 288 kts | 324° |
| 2026-05-08 20:04 | 40.02624 | -75.56740 | 15359 ft | 288 kts | 323° |
| 2026-05-08 20:05 | 40.04359 | -75.58069 | 16029 ft | 291 kts | 323° |
| 2026-05-08 20:05 | 40.06111 | -75.59404 | 16699 ft | 293 kts | 323° |
| 2026-05-08 20:05 | 40.07760 | -75.60882 | 17305 ft | 289 kts | 309° |
| 2026-05-08 20:05 | 40.09123 | -75.62802 | 17927 ft | 293 kts | 315° |
| 2026-05-08 20:06 | 40.10825 | -75.64331 | 18514 ft | 301 kts | 322° |
| 2026-05-08 20:06 | 40.12644 | -75.65712 | 19059 ft | 304 kts | 323° |
| 2026-05-08 20:06 | 40.14498 | -75.67065 | 19596 ft | 307 kts | 323° |
| 2026-05-08 20:06 | 40.16391 | -75.68401 | 20131 ft | 310 kts | 324° |
| 2026-05-08 20:07 | 40.18298 | -75.69740 | 20632 ft | 312 kts | 323° |
| 2026-05-08 20:07 | 40.20213 | -75.71106 | 21117 ft | 315 kts | 323° |
| 2026-05-08 20:07 | 40.22135 | -75.72509 | 21592 ft | 318 kts | 323° |
| 2026-05-08 20:07 | 40.24029 | -75.73935 | 22065 ft | 319 kts | 322° |
| 2026-05-08 20:08 | 40.25942 | -75.75429 | 22521 ft | 322 kts | 321° |
| 2026-05-08 20:08 | 40.27884 | -75.76921 | 22979 ft | 325 kts | 322° |
| 2026-05-08 20:08 | 40.29523 | -75.78138 | 23363 ft | 328 kts | 322° |
| 2026-05-08 20:08 | 40.31520 | -75.79611 | 23738 ft | 330 kts | 323° |
| 2026-05-08 20:09 | 40.33534 | -75.81088 | 24095 ft | 333 kts | 323° |
| 2026-05-08 20:09 | 40.35566 | -75.82567 | 24434 ft | 336 kts | 323° |
| 2026-05-08 20:09 | 40.37617 | -75.84056 | 24777 ft | 338 kts | 323° |
| 2026-05-08 20:09 | 40.39647 | -75.85536 | 25132 ft | 339 kts | 323° |
| 2026-05-08 20:10 | 40.41649 | -75.87150 | 25449 ft | 334 kts | 313° |
| 2026-05-08 20:10 | 40.43071 | -75.89468 | 25765 ft | 325 kts | 297° |
| 2026-05-08 20:10 | 40.44126 | -75.92087 | 26094 ft | 325 kts | 292° |
| 2026-05-08 20:10 | 40.44978 | -75.94836 | 26406 ft | 326 kts | 286° |
| 2026-05-08 20:11 | 40.45538 | -75.97724 | 26718 ft | 327 kts | 281° |
| 2026-05-08 20:11 | 40.45971 | -76.00660 | 27023 ft | 329 kts | 280° |
| 2026-05-08 20:11 | 40.46384 | -76.03618 | 27319 ft | 330 kts | 280° |
| 2026-05-08 20:11 | 40.46804 | -76.06566 | 27881 ft | 324 kts | 281° |
| 2026-05-08 20:12 | 40.47250 | -76.09415 | 28276 ft | 324 kts | 282° |
| 2026-05-08 20:12 | 40.47719 | -76.12313 | 28564 ft | 325 kts | 282° |
| 2026-05-08 20:12 | 40.48189 | -76.15224 | 28828 ft | 327 kts | 282° |
| 2026-05-08 20:12 | 40.48662 | -76.18158 | 29075 ft | 329 kts | 281° |
| 2026-05-08 20:13 | 40.49137 | -76.21109 | 29337 ft | 331 kts | 281° |
| 2026-05-08 20:13 | 40.49612 | -76.24071 | 29587 ft | 332 kts | 281° |
| 2026-05-08 20:13 | 40.50089 | -76.27048 | 29841 ft | 334 kts | 281° |
| 2026-05-08 20:13 | 40.50568 | -76.30042 | 30091 ft | 336 kts | 281° |
| 2026-05-08 20:14 | 40.51047 | -76.33045 | 30305 ft | 336 kts | 281° |
| 2026-05-08 20:14 | 40.51521 | -76.36019 | 30523 ft | 337 kts | 281° |
| 2026-05-08 20:14 | 40.52001 | -76.39038 | 30750 ft | 338 kts | 281° |
| 2026-05-08 20:14 | 40.52482 | -76.42064 | 30970 ft | 339 kts | 281° |
| 2026-05-08 20:15 | 40.52963 | -76.45097 | 31180 ft | 339 kts | 281° |
| 2026-05-08 20:15 | 40.53443 | -76.48134 | 31381 ft | 340 kts | 281° |
| 2026-05-08 20:15 | 40.53924 | -76.51186 | 31562 ft | 341 kts | 281° |
| 2026-05-08 20:15 | 40.54404 | -76.54241 | 31788 ft | 341 kts | 282° |
| 2026-05-08 20:16 | 40.54882 | -76.57285 | 32046 ft | 340 kts | 281° |
| 2026-05-08 20:16 | 40.55430 | -76.60300 | 32315 ft | 339 kts | 285° |
| 2026-05-08 20:16 | 40.56139 | -76.63251 | 32594 ft | 338 kts | 288° |
| 2026-05-08 20:16 | 40.56923 | -76.66110 | 32870 ft | 337 kts | 289° |
| 2026-05-08 20:17 | 40.57732 | -76.68990 | 33173 ft | 335 kts | 289° |
| 2026-05-08 20:17 | 40.58533 | -76.71869 | 33381 ft | 335 kts | 288° |
| 2026-05-08 20:17 | 40.59316 | -76.74756 | 33596 ft | 335 kts | 288° |
| 2026-05-08 20:17 | 40.60084 | -76.77643 | 33843 ft | 333 kts | 288° |
| 2026-05-08 20:18 | 40.60841 | -76.80519 | 34062 ft | 333 kts | 288° |
| 2026-05-08 20:18 | 40.61600 | -76.83398 | 34212 ft | 333 kts | 288° |
| 2026-05-08 20:18 | 40.62363 | -76.86281 | 34347 ft | 333 kts | 288° |
| 2026-05-08 20:18 | 40.63113 | -76.89110 | 34643 ft | 330 kts | 288° |
| 2026-05-08 20:19 | 40.63868 | -76.91958 | 34798 ft | 330 kts | 288° |
| 2026-05-08 20:19 | 40.64626 | -76.94813 | 34963 ft | 330 kts | 288° |
| 2026-05-08 20:19 | 40.65381 | -76.97676 | 35132 ft | 330 kts | 288° |
| 2026-05-08 20:19 | 40.66135 | -77.00534 | 35283 ft | 330 kts | 288° |
| 2026-05-08 20:20 | 40.66891 | -77.03398 | 35414 ft | 331 kts | 288° |
| 2026-05-08 20:20 | 40.67646 | -77.06265 | 35560 ft | 332 kts | 288° |
| 2026-05-08 20:20 | 40.68398 | -77.09137 | 35719 ft | 332 kts | 287° |
| 2026-05-08 20:20 | 40.69150 | -77.12014 | 35878 ft | 333 kts | 287° |
| 2026-05-08 20:21 | 40.69897 | -77.14858 | 36031 ft | 332 kts | 287° |
| 2026-05-08 20:21 | 40.70653 | -77.17739 | 36134 ft | 333 kts | 287° |
| 2026-05-08 20:21 | 40.71407 | -77.20619 | 36241 ft | 334 kts | 287° |
| 2026-05-08 20:21 | 40.72164 | -77.23516 | 36397 ft | 333 kts | 287° |
| 2026-05-08 20:22 | 40.72914 | -77.26394 | 36600 ft | 332 kts | 287° |
| 2026-05-08 20:22 | 40.73667 | -77.29272 | 36731 ft | 332 kts | 287° |
| 2026-05-08 20:22 | 40.74913 | -77.34064 | 36932 ft | 332 kts | 287° |
| 2026-05-08 20:23 | 40.76628 | -77.40658 | 37324 ft | 315 kts | 287° |
| 2026-05-08 20:23 | 40.78002 | -77.45952 | 37505 ft | 295 kts | 286° |
| 2026-05-08 20:24 | 40.78670 | -77.48547 | 37292 ft | 303 kts | 286° |
| 2026-05-08 20:24 | 40.79350 | -77.51190 | 37293 ft | 307 kts | 286° |
| 2026-05-08 20:24 | 40.79804 | -77.52957 | 37410 ft | 305 kts | 286° |
| 2026-05-08 20:24 | 40.80490 | -77.55617 | 37516 ft | 306 kts | 287° |
| 2026-05-08 20:25 | 40.81176 | -77.58271 | 37669 ft | 306 kts | 286° |
| 2026-05-08 20:25 | 40.81863 | -77.60931 | 37770 ft | 306 kts | 286° |
| 2026-05-08 20:25 | 40.82766 | -77.64453 | 37901 ft | 307 kts | 286° |
| 2026-05-08 20:25 | 40.83453 | -77.67133 | 37946 ft | 309 kts | 286° |
| 2026-05-08 20:26 | 40.84598 | -77.71608 | 37958 ft | 310 kts | 286° |
| 2026-05-08 20:26 | 40.85983 | -77.77017 | 37965 ft | 312 kts | 286° |
| 2026-05-08 20:27 | 40.87371 | -77.82463 | 37974 ft | 314 kts | 286° |
| 2026-05-08 20:27 | 40.88994 | -77.88840 | 37981 ft | 316 kts | 286° |
| 2026-05-08 20:28 | 40.90172 | -77.93478 | 37984 ft | 319 kts | 286° |
| 2026-05-08 20:28 | 40.91502 | -77.99055 | 37981 ft | 321 kts | 282° |
| 2026-05-08 20:29 | 40.92394 | -78.04863 | 37973 ft | 324 kts | 278° |
| 2026-05-08 20:29 | 40.93151 | -78.11740 | 37967 ft | 327 kts | 278° |
| 2026-05-08 20:30 | 40.93769 | -78.16732 | 37974 ft | 329 kts | 278° |
| 2026-05-08 20:30 | 40.94503 | -78.22696 | 37971 ft | 332 kts | 278° |
| 2026-05-08 20:31 | 40.95244 | -78.28751 | 37973 ft | 335 kts | 278° |
| 2026-05-08 20:31 | 40.95987 | -78.34864 | 37973 ft | 338 kts | 278° |
| 2026-05-08 20:32 | 40.96737 | -78.41027 | 37980 ft | 341 kts | 278° |
| 2026-05-08 20:32 | 40.97488 | -78.47258 | 37977 ft | 344 kts | 278° |
| 2026-05-08 20:33 | 40.98245 | -78.53548 | 37972 ft | 347 kts | 278° |
| 2026-05-08 20:33 | 40.98997 | -78.59841 | 37968 ft | 350 kts | 278° |
| 2026-05-08 20:34 | 40.99754 | -78.66214 | 37974 ft | 352 kts | 278° |
| 2026-05-08 20:35 | 41.00897 | -78.75854 | 37953 ft | 355 kts | 278° |
| 2026-05-08 20:35 | 41.01648 | -78.82331 | 37952 ft | 357 kts | 278° |
| 2026-05-08 20:36 | 41.02403 | -78.88803 | 37952 ft | 359 kts | 278° |
| 2026-05-08 20:36 | 41.03165 | -78.95360 | 37969 ft | 362 kts | 278° |
| 2026-05-08 20:37 | 41.03929 | -79.01964 | 37956 ft | 364 kts | 278° |
| 2026-05-08 20:37 | 41.04697 | -79.08612 | 37965 ft | 366 kts | 278° |
| 2026-05-08 20:38 | 41.05462 | -79.15297 | 37956 ft | 368 kts | 278° |
| 2026-05-08 20:38 | 41.06220 | -79.21964 | 37957 ft | 369 kts | 278° |
| 2026-05-08 20:39 | 41.06984 | -79.28705 | 37971 ft | 371 kts | 278° |
| 2026-05-08 20:39 | 41.07751 | -79.35474 | 37977 ft | 372 kts | 278° |
| 2026-05-08 20:40 | 41.08511 | -79.42276 | 37984 ft | 374 kts | 278° |
| 2026-05-08 20:40 | 41.09267 | -79.49063 | 37984 ft | 376 kts | 278° |
| 2026-05-08 20:41 | 41.10029 | -79.55932 | 37984 ft | 377 kts | 278° |
| 2026-05-08 20:41 | 41.10789 | -79.62821 | 37974 ft | 378 kts | 278° |
| 2026-05-08 20:42 | 41.11546 | -79.69725 | 37958 ft | 378 kts | 278° |
| 2026-05-08 20:42 | 41.12296 | -79.76606 | 37961 ft | 376 kts | 278° |
| 2026-05-08 20:43 | 41.13038 | -79.83427 | 37977 ft | 376 kts | 278° |
| 2026-05-08 20:43 | 41.13777 | -79.90275 | 37957 ft | 375 kts | 278° |
| 2026-05-08 20:44 | 41.14509 | -79.97103 | 37958 ft | 373 kts | 277° |
| 2026-05-08 20:44 | 41.15234 | -80.03918 | 37968 ft | 373 kts | 277° |
| 2026-05-08 20:45 | 41.15950 | -80.10674 | 37969 ft | 372 kts | 277° |
| 2026-05-08 20:45 | 41.16658 | -80.17465 | 37972 ft | 371 kts | 277° |
| 2026-05-08 20:46 | 41.17384 | -80.24238 | 37972 ft | 370 kts | 277° |
| 2026-05-08 20:46 | 41.18082 | -80.31004 | 37963 ft | 370 kts | 277° |
| 2026-05-08 20:47 | 41.18783 | -80.37761 | 37969 ft | 369 kts | 277° |
| 2026-05-08 20:47 | 41.19464 | -80.44461 | 37970 ft | 368 kts | 277° |
| 2026-05-08 20:48 | 41.20165 | -80.51196 | 37969 ft | 368 kts | 277° |
| 2026-05-08 20:48 | 41.20845 | -80.57926 | 37963 ft | 367 kts | 277° |
| 2026-05-08 20:49 | 41.21523 | -80.64644 | 37937 ft | 367 kts | 277° |
| 2026-05-08 20:49 | 41.22195 | -80.71311 | 37950 ft | 366 kts | 277° |
| 2026-05-08 20:50 | 41.22861 | -80.77968 | 38186 ft | 351 kts | 277° |
| 2026-05-08 20:50 | 41.23197 | -80.81158 | 38002 ft | 350 kts | 277° |
| 2026-05-08 20:50 | 41.23541 | -80.84370 | 37929 ft | 353 kts | 277° |
| 2026-05-08 20:51 | 41.24216 | -80.90861 | 37930 ft | 355 kts | 277° |
| 2026-05-08 20:51 | 41.24864 | -80.97376 | 37948 ft | 356 kts | 277° |
| 2026-05-08 20:52 | 41.25499 | -81.03879 | 37955 ft | 358 kts | 277° |
| 2026-05-08 20:52 | 41.26139 | -81.10459 | 37967 ft | 360 kts | 277° |
| 2026-05-08 20:53 | 41.26776 | -81.17078 | 37962 ft | 362 kts | 277° |
| 2026-05-08 20:53 | 41.27413 | -81.23731 | 37957 ft | 364 kts | 277° |
| 2026-05-08 20:54 | 41.28050 | -81.30414 | 37949 ft | 365 kts | 276° |
| 2026-05-08 20:54 | 41.28686 | -81.37120 | 37967 ft | 366 kts | 276° |
| 2026-05-08 20:55 | 41.29314 | -81.43805 | 37951 ft | 368 kts | 276° |
| 2026-05-08 20:55 | 41.29945 | -81.50562 | 37954 ft | 369 kts | 276° |
| 2026-05-08 20:56 | 41.30578 | -81.57343 | 37952 ft | 370 kts | 276° |
| 2026-05-08 20:56 | 41.31193 | -81.64152 | 37950 ft | 371 kts | 276° |
| 2026-05-08 20:57 | 41.31817 | -81.70969 | 37943 ft | 372 kts | 276° |
| 2026-05-08 20:57 | 41.32441 | -81.77801 | 37948 ft | 372 kts | 276° |
| 2026-05-08 20:58 | 41.33061 | -81.84606 | 37949 ft | 373 kts | 276° |
| 2026-05-08 20:58 | 41.33678 | -81.91472 | 37944 ft | 374 kts | 276° |
| 2026-05-08 20:59 | 41.34291 | -81.98347 | 37947 ft | 375 kts | 276° |
| 2026-05-08 20:59 | 41.34899 | -82.05241 | 37953 ft | 375 kts | 276° |
| 2026-05-08 21:00 | 41.36153 | -82.11914 | 37962 ft | 379 kts | 290° |
| 2026-05-08 21:00 | 41.38385 | -82.18297 | 37951 ft | 380 kts | 290° |
| 2026-05-08 21:01 | 41.40492 | -82.24752 | 37952 ft | 380 kts | 288° |
| 2026-05-08 21:01 | 41.41695 | -82.27897 | 37954 ft | 386 kts | 300° |
| 2026-05-08 21:01 | 41.43385 | -82.30712 | 37959 ft | 390 kts | 304° |
| 2026-05-08 21:02 | 41.46838 | -82.36286 | 37958 ft | 389 kts | 301° |
| 2026-05-08 21:02 | 41.49962 | -82.42094 | 37943 ft | 388 kts | 299° |
| 2026-05-08 21:03 | 41.53103 | -82.47953 | 37991 ft | 388 kts | 300° |
| 2026-05-08 21:03 | 41.56257 | -82.53831 | 37932 ft | 390 kts | 300° |
| 2026-05-08 21:04 | 41.59418 | -82.59721 | 37922 ft | 390 kts | 300° |
| 2026-05-08 21:04 | 41.62580 | -82.65622 | 37929 ft | 391 kts | 300° |
| 2026-05-08 21:05 | 41.65720 | -82.71497 | 37923 ft | 391 kts | 300° |
| 2026-05-08 21:05 | 41.68881 | -82.77419 | 37921 ft | 391 kts | 300° |
| 2026-05-08 21:06 | 41.72039 | -82.83346 | 37919 ft | 391 kts | 299° |
| 2026-05-08 21:06 | 41.75194 | -82.89282 | 37915 ft | 391 kts | 299° |
| 2026-05-08 21:07 | 41.78324 | -82.95187 | 37938 ft | 392 kts | 299° |
| 2026-05-08 21:07 | 41.81485 | -83.01158 | 37920 ft | 393 kts | 300° |
| 2026-05-08 21:08 | 41.84652 | -83.07150 | 37909 ft | 394 kts | 299° |
| 2026-05-08 21:08 | 41.87814 | -83.13147 | 37909 ft | 394 kts | 299° |
| 2026-05-08 21:09 | 41.90980 | -83.19162 | 37914 ft | 395 kts | 299° |
| 2026-05-08 21:09 | 41.94125 | -83.25149 | 37913 ft | 395 kts | 299° |
| 2026-05-08 21:10 | 41.97293 | -83.31190 | 37911 ft | 396 kts | 299° |
| 2026-05-08 21:10 | 42.00461 | -83.37245 | 37914 ft | 396 kts | 299° |
| 2026-05-08 21:11 | 42.03637 | -83.43314 | 37918 ft | 398 kts | 300° |
| 2026-05-08 21:11 | 42.07304 | -83.48987 | 37916 ft | 405 kts | 307° |
| 2026-05-08 21:12 | 42.11337 | -83.54263 | 37923 ft | 408 kts | 309° |
| 2026-05-08 21:12 | 42.15444 | -83.59550 | 37920 ft | 409 kts | 309° |
| 2026-05-08 21:13 | 42.19566 | -83.64840 | 37889 ft | 410 kts | 309° |
| 2026-05-08 21:13 | 42.23675 | -83.70171 | 37927 ft | 410 kts | 309° |
| 2026-05-08 21:14 | 42.27780 | -83.75543 | 37898 ft | 412 kts | 309° |
| 2026-05-08 21:14 | 42.31894 | -83.80937 | 37893 ft | 412 kts | 309° |
| 2026-05-08 21:15 | 42.35983 | -83.86306 | 37900 ft | 413 kts | 309° |
| 2026-05-08 21:15 | 42.40105 | -83.91729 | 37892 ft | 414 kts | 309° |
| 2026-05-08 21:16 | 42.44226 | -83.97165 | 37886 ft | 414 kts | 309° |
| 2026-05-08 21:16 | 42.48350 | -84.02622 | 37899 ft | 415 kts | 309° |
| 2026-05-08 21:17 | 42.52486 | -84.08090 | 37876 ft | 416 kts | 309° |
| 2026-05-08 21:17 | 42.56596 | -84.13540 | 37884 ft | 416 kts | 309° |
| 2026-05-08 21:18 | 42.60732 | -84.19037 | 37879 ft | 416 kts | 309° |
| 2026-05-08 21:18 | 42.64869 | -84.24544 | 37886 ft | 416 kts | 309° |
| 2026-05-08 21:19 | 42.69004 | -84.30059 | 37889 ft | 417 kts | 309° |
| 2026-05-08 21:19 | 42.73097 | -84.35529 | 37895 ft | 417 kts | 309° |
| 2026-05-08 21:20 | 42.77229 | -84.41063 | 37882 ft | 417 kts | 309° |
| 2026-05-08 21:20 | 42.81361 | -84.46606 | 37881 ft | 417 kts | 309° |
| 2026-05-08 21:21 | 42.85489 | -84.52156 | 37878 ft | 417 kts | 309° |
| 2026-05-08 21:21 | 42.89590 | -84.57680 | 37941 ft | 417 kts | 309° |
| 2026-05-08 21:22 | 42.93718 | -84.63263 | 37908 ft | 418 kts | 309° |
| 2026-05-08 21:22 | 42.97855 | -84.68860 | 37897 ft | 419 kts | 309° |
| 2026-05-08 21:23 | 43.01993 | -84.74465 | 37888 ft | 419 kts | 309° |
| 2026-05-08 21:23 | 43.06100 | -84.80042 | 37883 ft | 419 kts | 309° |
| 2026-05-08 21:24 | 43.09338 | -84.86419 | 37897 ft | 404 kts | 288° |
| 2026-05-08 21:24 | 43.11305 | -84.93627 | 37893 ft | 405 kts | 287° |
| 2026-05-08 21:25 | 43.13190 | -85.00894 | 37893 ft | 406 kts | 287° |
| 2026-05-08 21:25 | 43.14887 | -85.08255 | 37881 ft | 405 kts | 279° |
| 2026-05-08 21:26 | 43.15075 | -85.15871 | 37897 ft | 404 kts | 269° |
| 2026-05-08 21:26 | 43.15016 | -85.23577 | 37889 ft | 405 kts | 271° |
| 2026-05-08 21:27 | 43.15246 | -85.31291 | 37778 ft | 408 kts | 272° |
| 2026-05-08 21:27 | 43.15434 | -85.39094 | 37464 ft | 413 kts | 272° |
| 2026-05-08 21:27 | 43.15526 | -85.43027 | 37125 ft | 413 kts | 272° |
| 2026-05-08 21:28 | 43.15617 | -85.46901 | 36802 ft | 412 kts | 272° |
| 2026-05-08 21:28 | 43.15709 | -85.50820 | 36478 ft | 411 kts | 272° |
| 2026-05-08 21:28 | 43.15797 | -85.54727 | 36166 ft | 409 kts | 272° |
| 2026-05-08 21:28 | 43.15883 | -85.58609 | 35854 ft | 407 kts | 272° |
| 2026-05-08 21:29 | 43.15969 | -85.62465 | 35390 ft | 401 kts | 272° |
| 2026-05-08 21:29 | 43.16051 | -85.66243 | 34893 ft | 392 kts | 272° |
| 2026-05-08 21:29 | 43.16129 | -85.69935 | 34395 ft | 384 kts | 272° |
| 2026-05-08 21:29 | 43.16206 | -85.73559 | 33917 ft | 377 kts | 272° |
| 2026-05-08 21:30 | 43.16279 | -85.77119 | 33341 ft | 371 kts | 272° |
| 2026-05-08 21:30 | 43.16351 | -85.80573 | 32775 ft | 365 kts | 271° |
| 2026-05-08 21:30 | 43.16424 | -85.84023 | 32221 ft | 360 kts | 271° |
| 2026-05-08 21:30 | 43.16492 | -85.87433 | 31678 ft | 356 kts | 271° |
| 2026-05-08 21:31 | 43.16560 | -85.90804 | 31140 ft | 352 kts | 271° |
| 2026-05-08 21:31 | 43.16624 | -85.94143 | 30623 ft | 349 kts | 271° |
| 2026-05-08 21:31 | 43.16688 | -85.97451 | 30128 ft | 346 kts | 271° |
| 2026-05-08 21:31 | 43.16751 | -86.00711 | 29671 ft | 340 kts | 271° |
| 2026-05-08 21:32 | 43.16808 | -86.03931 | 29182 ft | 336 kts | 271° |
| 2026-05-08 21:32 | 43.16852 | -86.07069 | 28707 ft | 332 kts | 270° |
| 2026-05-08 21:32 | 43.16840 | -86.10217 | 28233 ft | 329 kts | 269° |
| 2026-05-08 21:32 | 43.16793 | -86.13339 | 27769 ft | 326 kts | 269° |
| 2026-05-08 21:33 | 43.16750 | -86.16437 | 27311 ft | 324 kts | 269° |
| 2026-05-08 21:33 | 43.16707 | -86.19514 | 26843 ft | 322 kts | 269° |
| 2026-05-08 21:33 | 43.16661 | -86.22578 | 26400 ft | 321 kts | 269° |
| 2026-05-08 21:33 | 43.16615 | -86.25628 | 25950 ft | 320 kts | 269° |
| 2026-05-08 21:34 | 43.16569 | -86.28671 | 25525 ft | 319 kts | 269° |
| 2026-05-08 21:34 | 43.16525 | -86.31708 | 25107 ft | 319 kts | 269° |
| 2026-05-08 21:34 | 43.16481 | -86.34706 | 24698 ft | 318 kts | 269° |
| 2026-05-08 21:34 | 43.16432 | -86.37734 | 24291 ft | 318 kts | 269° |
| 2026-05-08 21:35 | 43.16384 | -86.40765 | 23889 ft | 319 kts | 269° |
| 2026-05-08 21:35 | 43.16335 | -86.43802 | 23492 ft | 319 kts | 269° |
| 2026-05-08 21:35 | 43.16282 | -86.46841 | 23023 ft | 319 kts | 269° |
| 2026-05-08 21:35 | 43.16231 | -86.49881 | 22554 ft | 320 kts | 269° |
| 2026-05-08 21:36 | 43.16180 | -86.52924 | 22094 ft | 320 kts | 269° |
| 2026-05-08 21:36 | 43.16125 | -86.55976 | 21629 ft | 321 kts | 269° |
| 2026-05-08 21:36 | 43.16071 | -86.59032 | 21199 ft | 321 kts | 269° |
| 2026-05-08 21:36 | 43.16016 | -86.62053 | 20768 ft | 322 kts | 269° |
| 2026-05-08 21:37 | 43.15961 | -86.65123 | 20330 ft | 323 kts | 269° |
| 2026-05-08 21:37 | 43.15905 | -86.68200 | 19907 ft | 324 kts | 269° |
| 2026-05-08 21:37 | 43.15844 | -86.71286 | 19492 ft | 324 kts | 269° |
| 2026-05-08 21:37 | 43.15786 | -86.74380 | 19079 ft | 325 kts | 269° |
| 2026-05-08 21:38 | 43.15727 | -86.77472 | 18672 ft | 326 kts | 269° |
| 2026-05-08 21:38 | 43.15664 | -86.80579 | 18262 ft | 326 kts | 269° |
| 2026-05-08 21:38 | 43.15603 | -86.83645 | 17818 ft | 327 kts | 269° |
| 2026-05-08 21:38 | 43.15542 | -86.86760 | 17359 ft | 327 kts | 269° |
| 2026-05-08 21:39 | 43.15476 | -86.89880 | 16908 ft | 328 kts | 269° |
| 2026-05-08 21:39 | 43.15413 | -86.93006 | 16463 ft | 328 kts | 269° |
| 2026-05-08 21:39 | 43.15347 | -86.96131 | 16008 ft | 329 kts | 269° |
| 2026-05-08 21:39 | 43.15282 | -86.99261 | 15576 ft | 329 kts | 269° |
| 2026-05-08 21:40 | 43.15211 | -87.02400 | 15148 ft | 329 kts | 269° |
| 2026-05-08 21:40 | 43.15137 | -87.05534 | 14727 ft | 330 kts | 269° |
| 2026-05-08 21:40 | 43.15068 | -87.08669 | 14314 ft | 330 kts | 269° |
| 2026-05-08 21:41 | 43.14925 | -87.14897 | 13485 ft | 329 kts | 269° |
| 2026-05-08 21:41 | 43.14852 | -87.18028 | 13028 ft | 329 kts | 269° |
| 2026-05-08 21:41 | 43.14780 | -87.21156 | 12576 ft | 328 kts | 269° |
| 2026-05-08 21:41 | 43.14703 | -87.24276 | 12131 ft | 327 kts | 269° |
| 2026-05-08 21:42 | 43.14631 | -87.27373 | 11691 ft | 321 kts | 269° |
| 2026-05-08 21:42 | 43.14561 | -87.30375 | 11252 ft | 311 kts | 269° |
| 2026-05-08 21:42 | 43.14487 | -87.33297 | 10809 ft | 303 kts | 269° |
| 2026-05-08 21:42 | 43.14423 | -87.36123 | 10368 ft | 291 kts | 269° |
| 2026-05-08 21:43 | 43.14448 | -87.38833 | 9928 ft | 279 kts | 273° |
| 2026-05-08 21:43 | 43.14577 | -87.41397 | 9465 ft | 269 kts | 275° |
| 2026-05-08 21:43 | 43.14744 | -87.43906 | 9013 ft | 260 kts | 275° |
| 2026-05-08 21:43 | 43.14898 | -87.46333 | 8738 ft | 253 kts | 275° |
| 2026-05-08 21:44 | 43.15044 | -87.48718 | 8467 ft | 249 kts | 275° |
| 2026-05-08 21:44 | 43.15189 | -87.51062 | 8194 ft | 246 kts | 275° |
| 2026-05-08 21:44 | 43.15325 | -87.53387 | 7919 ft | 244 kts | 274° |
| 2026-05-08 21:44 | 43.15454 | -87.55699 | 7651 ft | 243 kts | 274° |
| 2026-05-08 21:45 | 43.15582 | -87.58001 | 7397 ft | 241 kts | 275° |
| 2026-05-08 21:45 | 43.15716 | -87.60282 | 7142 ft | 240 kts | 275° |
| 2026-05-08 21:45 | 43.15898 | -87.62514 | 6875 ft | 238 kts | 277° |
| 2026-05-08 21:45 | 43.16117 | -87.64758 | 6633 ft | 237 kts | 277° |
| 2026-05-08 21:46 | 43.16332 | -87.66987 | 6388 ft | 235 kts | 277° |
| 2026-05-08 21:46 | 43.16539 | -87.69203 | 6124 ft | 234 kts | 277° |
| 2026-05-08 21:46 | 43.16745 | -87.71403 | 5842 ft | 232 kts | 276° |
| 2026-05-08 21:46 | 43.16959 | -87.73591 | 5582 ft | 231 kts | 276° |
| 2026-05-08 21:47 | 43.17177 | -87.75764 | 5323 ft | 230 kts | 276° |
| 2026-05-08 21:47 | 43.17385 | -87.77926 | 5065 ft | 228 kts | 276° |
| 2026-05-08 21:47 | 43.17584 | -87.80072 | 4805 ft | 226 kts | 276° |
| 2026-05-08 21:47 | 43.17641 | -87.82176 | 4526 ft | 224 kts | 257° |
| 2026-05-08 21:48 | 43.16820 | -87.83927 | 4260 ft | 222 kts | 219° |
| 2026-05-08 21:48 | 43.15561 | -87.85135 | 4027 ft | 220 kts | 214° |
| 2026-05-08 21:48 | 43.14242 | -87.86174 | 3785 ft | 218 kts | 205° |
| 2026-05-08 21:48 | 43.12760 | -87.86596 | 3531 ft | 218 kts | 188° |
| 2026-05-08 21:49 | 43.11264 | -87.86780 | 3309 ft | 212 kts | 186° |
| 2026-05-08 21:49 | 43.09816 | -87.86943 | 3070 ft | 205 kts | 186° |
| 2026-05-08 21:49 | 43.08413 | -87.87117 | 2817 ft | 200 kts | 187° |
| 2026-05-08 21:49 | 43.07083 | -87.87314 | 2648 ft | 192 kts | 188° |
| 2026-05-08 21:50 | 43.05787 | -87.87554 | 2447 ft | 186 kts | 189° |
| 2026-05-08 21:50 | 43.04508 | -87.87795 | 2259 ft | 184 kts | 188° |
| 2026-05-08 21:50 | 43.03244 | -87.88025 | 2048 ft | 183 kts | 188° |
| 2026-05-08 21:50 | 43.01985 | -87.88244 | 1827 ft | 182 kts | 187° |
| 2026-05-08 21:51 | 43.00739 | -87.88456 | 1628 ft | 176 kts | 186° |
| 2026-05-08 21:51 | 42.99644 | -87.88640 | 1664 ft | 148 kts | 186° |
| 2026-05-08 21:51 | 42.98616 | -87.88832 | 1336 ft | 156 kts | 184° |
| 2026-05-08 21:51 | 42.97549 | -87.88998 | 1140 ft | 147 kts | 182° |
| 2026-05-08 21:52 | 42.96555 | -87.89180 | 920 ft | 143 kts | 183° |
| 2026-05-08 21:52 | 42.95579 | -87.89334 | 717 ft | 140 kts | 183° |
| 2026-05-08 21:52 | 42.94699 | -87.89484 | 677 ft | 106 kts | 186° |
| 2026-05-08 21:52 | 42.94155 | -87.89572 | 677 ft | 38 kts | 197° |
| 2026-05-08 21:53 | 42.94038 | -87.89761 | 676 ft | 21 kts | 256° |
| 2026-05-08 21:53 | 42.94058 | -87.89874 | 679 ft | 5 kts | 327° |
| 2026-05-08 21:53 | 42.94071 | -87.89881 | 680 ft | 1 kts | 348° |
| 2026-05-08 21:53 | 42.94119 | -87.89892 | 681 ft | 13 kts | 356° |
| 2026-05-08 21:54 | 42.94249 | -87.89911 | 679 ft | 24 kts | 350° |
| 2026-05-08 21:54 | 42.94421 | -87.89954 | 680 ft | 16 kts | 347° |
| 2026-05-08 21:54 | 42.94467 | -87.89968 | 680 ft | 4 kts | 347° |
| 2026-05-08 21:54 | 42.94472 | -87.89970 | 680 ft | 1 kts | 350° |
| 2026-05-08 21:55 | 42.94502 | -87.89969 | 680 ft | 7 kts | 22° |
| 2026-05-08 21:55 | 42.94532 | -87.89915 | 678 ft | 8 kts | 62° |
| 2026-05-08 21:55 | 42.94567 | -87.89838 | 679 ft | 11 kts | 54° |
| 2026-05-08 21:56 | 42.94629 | -87.89839 | 677 ft | 9 kts | 315° |
| 2026-05-08 21:56 | 42.94644 | -87.89859 | 678 ft | 0 kts | 315° |